Upper Long Lake, Indiana
Current Conditions -  °F | °C
As of 9:15 PM on Monday 22 Dec 2014 (Local Time) from KGWB Reporting Station
Light Rain Light Rain  
Wind Chill: 29°   Ceiling: 4600
Heat Index: 36°   Visibility: 4mi
Dew Point: 34°   Wind: 8mph
Humidity: 93%   Direction: 90°E
Pressure: 29.79"   Gusts: NA
Location:  41.3469°N, 85.4059°W
Report Text: KGWB 230215Z AUTO 09007KT 4SM -RA BKN046 OVC050 02/01 A2979 RMK AO2 P0001
Loading
Personal Weather Stations






























Interactive Weather Map New forecast layout! Learn more

10-Day Weather Forecast

Advertisements
Track Severe Weather on mobile